Aérodrome :
LOGIN :

S'inscrire | Disclaimer

   EN    FR    IT 

 










Légende :    VFR   VFR Marginal   IFR   IFR Intensif   IFR Très Intensif
Visi : 
Plafond : 
>= 8 km
>= 3000ft
5 à 8 km
1000 à 3000 ft
1500m à 5 km
500 à 1000 ft
800 à 1500m
200 à 500 ft
< 800m
< 200 ft
Symboles :   Orages  Brouillard  Fortes neiges  Fortes précipitations  Vent > 20 kt
SIGMETs :   Divers  Orages  Givrage  Turbulence  Onde Orograph.  Cendres Volcan.







- Altitude de l'aérodrome : 405 ft
- Code IATA : ODH


EGVO - RAF Odiham

DERNIER METAR :
  • 201150Z 31005KT 9999 SCT031 BKN060 16/09 Q1013 BLU NOSIG

METARs EXPIRÉS :
  • 201050Z 35007KT 9999 FEW028 SCT200 17/09 Q1013 BLU NOSIG
  • 200950Z 32007KT 9999 FEW020 BKN200 15/10 Q1013 BLU NOSIG

TAF TAF EGVO
Valide du 20 à 12h jusqu'au 21 à 00h UTC


201059Z 2012/2024 32008KT 9999 SCT030
PROB30
TEMPO 2014/2019 7000 SHRA SCT025CB
Pas de NOTAMs connus pour ce terrain.
1 SIGMET publié pour la FIR London (EGTT) :
 
Orages noyés dans la masse
EGTT SIGMET 02 VALID 200845/201245 EGRR
EGTT LONDON FIR EMBD TS FCST WI N5500 E00500 - N5404 E00412 - N5348 E00231 - N5500 E00231 - N5500 E00500 TOP FL280 MOV NW 10KT NC=



MET'MAP, la Météo Aéronautique d'un coup d'oeil ! - Copyright ORBIFLY Décembre 2007 - Disclaimer

ORBIFLY MET'MAP TEAM :

Programmation & Développement : Alexandra Zaïnal
Conception & Développement : Baudouin d'Aumeries
Co-Programmation & Développement : Marc-Olivier Méhu
Soutien technique & logistique : Manuel Goepfert

Contact : metmap@orbifly.com




SOURCES & CREDITS :

   NOAA